createdAt,value
2018-12-24T00:01:10.517Z,99.90
2018-12-24T00:03:49.576Z,99.90
2018-12-24T00:06:27.197Z,99.90
2018-12-24T00:09:00.243Z,99.90
2018-12-24T00:11:31.786Z,99.90
2018-12-24T00:14:01.975Z,99.90
2018-12-24T00:16:40.985Z,99.90
2018-12-24T00:19:21.253Z,99.90
2018-12-24T00:21:52.877Z,99.90
2018-12-24T00:24:21.402Z,99.90
2018-12-24T00:26:55.665Z,99.90
2018-12-24T00:29:25.896Z,99.90
2018-12-24T00:31:54.444Z,99.90
2018-12-24T00:34:25.765Z,99.90
2018-12-24T00:36:55.057Z,99.90
2018-12-24T00:39:28.208Z,99.30
2018-12-24T00:41:59.426Z,98.80
2018-12-24T00:44:34.046Z,98.50
2018-12-24T00:47:04.231Z,98.50
2018-12-24T00:49:38.545Z,98.70
2018-12-24T00:52:07.095Z,99.00
2018-12-24T00:54:41.687Z,99.20
2018-12-24T00:57:13.369Z,99.50
2018-12-24T00:59:43.822Z,99.60
2018-12-24T01:02:19.329Z,99.90
2018-12-24T01:04:53.703Z,99.90
2018-12-24T01:07:22.553Z,99.90
2018-12-24T01:09:53.777Z,99.80
2018-12-24T01:12:25.241Z,99.50
2018-12-24T01:14:56.557Z,99.50
2018-12-24T01:17:25.098Z,99.80
2018-12-24T01:20:02.278Z,99.90
2018-12-24T01:22:42.145Z,99.80
2018-12-24T01:25:13.578Z,99.90
2018-12-24T01:27:43.629Z,99.90
2018-12-24T01:30:14.877Z,99.80
2018-12-24T01:32:47.705Z,99.50
2018-12-24T01:35:18.882Z,99.50
2018-12-24T01:37:55.282Z,99.70
2018-12-24T01:40:23.799Z,99.90
2018-12-24T01:42:52.315Z,99.60
2018-12-24T01:45:23.726Z,99.50
2018-12-24T01:47:54.184Z,99.40
2018-12-24T01:50:24.302Z,99.30
2018-12-24T01:52:52.830Z,99.30
2018-12-24T01:55:24.077Z,99.50
2018-12-24T01:58:01.499Z,99.60
2018-12-24T02:00:40.118Z,99.90
2018-12-24T02:03:08.854Z,99.90
2018-12-24T02:05:40.418Z,99.90
2018-12-24T02:08:10.568Z,99.90
2018-12-24T02:10:39.082Z,99.90
2018-12-24T02:13:10.285Z,99.90
2018-12-24T02:15:38.797Z,99.90
2018-12-24T02:18:10.292Z,99.90
2018-12-24T02:20:40.301Z,99.90
2018-12-24T02:23:17.577Z,99.80
2018-12-24T02:25:50.906Z,99.90
2018-12-24T02:28:22.786Z,99.90
2018-12-24T02:31:00.230Z,99.90
2018-12-24T02:33:29.252Z,99.90
2018-12-24T02:35:57.779Z,99.90
2018-12-24T02:38:29.346Z,99.90
2018-12-24T02:40:57.874Z,99.90
2018-12-24T02:43:30.921Z,99.70
2018-12-24T02:46:03.862Z,99.40
2018-12-24T02:48:32.394Z,99.30
2018-12-24T02:51:01.265Z,99.50
2018-12-24T02:53:57.386Z,99.40
2018-12-24T02:56:34.780Z,99.20
2018-12-24T02:59:03.325Z,99.20
2018-12-24T03:01:37.541Z,99.10
2018-12-24T03:04:06.054Z,98.90
2018-12-24T03:06:43.066Z,98.80
2018-12-24T03:09:21.559Z,98.70
2018-12-24T03:11:50.081Z,98.50
2018-12-24T03:14:18.866Z,98.60
2018-12-24T03:16:53.210Z,98.50
2018-12-24T03:19:24.542Z,98.80
2018-12-24T03:21:55.763Z,99.00
2018-12-24T03:24:25.986Z,99.50
2018-12-24T03:26:57.381Z,99.50
2018-12-24T03:29:27.582Z,99.30
2018-12-24T03:31:57.376Z,99.10
2018-12-24T03:34:27.542Z,99.40
2018-12-24T03:36:56.345Z,99.10
2018-12-24T03:39:26.537Z,99.20
2018-12-24T03:41:56.959Z,98.70
2018-12-24T03:44:28.381Z,98.80
2018-12-24T03:46:58.566Z,98.60
2018-12-24T03:49:28.913Z,99.00
2018-12-24T03:52:05.778Z,99.20
2018-12-24T03:54:34.323Z,99.10
2018-12-24T03:57:04.489Z,98.70
2018-12-24T03:59:38.446Z,98.60
2018-12-24T04:02:09.145Z,98.20
2018-12-24T04:04:37.765Z,98.30
2018-12-24T04:07:10.917Z,98.60
2018-12-24T04:09:41.911Z,98.60
2018-12-24T04:12:16.566Z,98.70
2018-12-24T04:14:45.139Z,98.90
2018-12-24T04:17:16.201Z,98.80
2018-12-24T04:19:44.707Z,99.20
2018-12-24T04:22:14.893Z,99.10
2018-12-24T04:24:45.047Z,99.10
2018-12-24T04:27:19.050Z,99.50
2018-12-24T04:29:47.593Z,98.90
2018-12-24T04:32:21.873Z,98.80
2018-12-24T04:34:50.722Z,98.90
2018-12-24T04:37:22.181Z,99.10
2018-12-24T04:39:56.341Z,99.20
2018-12-24T04:42:30.656Z,99.30
2018-12-24T04:45:01.852Z,99.10
2018-12-24T04:47:39.305Z,99.10
2018-12-24T04:50:10.749Z,99.10
2018-12-24T04:52:39.270Z,99.10
2018-12-24T04:55:10.762Z,99.20
2018-12-24T04:57:41.238Z,99.00
2018-12-24T05:00:11.762Z,99.20
2018-12-24T05:02:43.142Z,99.20
2018-12-24T05:05:21.020Z,99.30
2018-12-24T05:08:01.234Z,99.40
2018-12-24T05:10:29.790Z,99.60
2018-12-24T05:13:05.605Z,99.60
2018-12-24T05:15:38.521Z,99.60
2018-12-24T05:18:08.682Z,99.40
2018-12-24T05:20:42.829Z,99.40
2018-12-24T05:23:12.985Z,99.60
2018-12-24T05:25:49.780Z,99.70
2018-12-24T05:28:30.186Z,99.90
2018-12-24T05:31:04.342Z,99.90
2018-12-24T05:33:45.180Z,99.90
2018-12-24T05:36:13.893Z,99.90
2018-12-24T05:38:44.050Z,99.90
2018-12-24T05:41:12.557Z,99.90
2018-12-24T05:43:49.495Z,99.90
2018-12-24T05:46:25.840Z,99.90
2018-12-24T05:48:57.417Z,99.90
2018-12-24T05:51:30.681Z,99.90
2018-12-24T05:54:02.097Z,99.90
2018-12-24T05:56:30.941Z,99.90
2018-12-24T05:59:05.794Z,99.90
2018-12-24T06:01:34.338Z,99.90
2018-12-24T06:04:03.872Z,99.90
2018-12-24T06:06:40.296Z,99.90
2018-12-24T06:09:11.668Z,99.90
2018-12-24T06:11:45.948Z,99.90
2018-12-24T06:14:29.342Z,99.90
2018-12-24T06:16:59.510Z,99.90
2018-12-24T06:19:30.953Z,99.90
2018-12-24T06:22:09.635Z,99.90
2018-12-24T06:24:45.790Z,99.90
2018-12-24T06:27:15.578Z,99.90
2018-12-24T06:29:51.926Z,99.90
2018-12-24T06:32:26.314Z,99.90
2018-12-24T06:35:01.050Z,99.90
2018-12-24T06:37:39.182Z,99.90
2018-12-24T06:40:10.361Z,99.90
2018-12-24T06:42:43.539Z,99.90
2018-12-24T06:45:09.457Z,99.90
2018-12-24T06:47:38.150Z,99.90
2018-12-24T06:50:08.637Z,99.90
2018-12-24T06:52:48.798Z,99.90
2018-12-24T06:55:18.997Z,99.90
2018-12-24T06:57:57.118Z,99.90
2018-12-24T07:00:25.625Z,99.90
2018-12-24T07:02:54.139Z,99.90
2018-12-24T07:05:30.950Z,99.90
2018-12-24T07:08:05.553Z,99.90
2018-12-24T07:10:36.209Z,99.90
2018-12-24T07:13:07.010Z,99.90
2018-12-24T07:15:35.526Z,99.90
2018-12-24T07:18:06.875Z,99.90
2018-12-24T07:20:42.825Z,99.90
2018-12-24T07:23:15.985Z,99.90
2018-12-24T07:25:53.317Z,99.90
2018-12-24T07:28:21.838Z,99.90
2018-12-24T07:30:50.380Z,99.90
2018-12-24T07:33:20.530Z,99.90
2018-12-24T07:35:59.894Z,99.90
2018-12-24T07:38:22.303Z,99.90
2018-12-24T07:40:55.739Z,99.90
2018-12-24T07:43:27.130Z,99.90
2018-12-24T07:46:01.081Z,99.90
2018-12-24T07:48:38.654Z,99.90
2018-12-24T07:51:16.203Z,99.90
2018-12-24T07:53:46.359Z,99.90
2018-12-24T07:56:54.304Z,99.80
2018-12-24T07:59:25.590Z,99.70
2018-12-24T08:02:00.073Z,99.80
2018-12-24T08:04:34.185Z,99.60
2018-12-24T08:07:04.541Z,99.70
2018-12-24T08:09:36.038Z,99.60
2018-12-24T08:12:05.501Z,99.60
2018-12-24T08:14:33.925Z,99.20
2018-12-24T08:17:05.201Z,99.50
2018-12-24T08:19:42.609Z,99.10
2018-12-24T08:22:18.337Z,99.10
2018-12-24T08:24:51.617Z,99.10
2018-12-24T08:27:28.470Z,98.70
2018-12-24T08:29:56.905Z,97.80
2018-12-24T08:32:28.502Z,98.00
2018-12-24T08:35:01.237Z,97.80
2018-12-24T08:37:34.277Z,97.10
2018-12-24T08:40:02.680Z,97.20
2018-12-24T08:42:34.042Z,97.10
2018-12-24T08:45:02.454Z,97.00
2018-12-24T08:47:33.997Z,96.90
2018-12-24T08:50:07.122Z,96.90
2018-12-24T08:52:38.143Z,97.50
2018-12-24T08:55:12.965Z,97.30
2018-12-24T08:57:41.381Z,97.00
2018-12-24T09:00:24.880Z,97.20
2018-12-24T09:02:56.342Z,97.20
2018-12-24T09:05:30.438Z,97.50
2018-12-24T09:08:03.253Z,97.40
2018-12-24T09:10:33.326Z,97.70
2018-12-24T09:13:07.631Z,97.90
2018-12-24T09:15:37.103Z,98.00
2018-12-24T09:18:08.438Z,98.10
2018-12-24T09:20:38.489Z,98.30
2018-12-24T09:23:09.609Z,98.50
2018-12-24T09:25:38.013Z,98.30
2018-12-24T09:28:08.069Z,98.40
2018-12-24T09:30:45.774Z,98.50
2018-12-24T09:33:19.588Z,98.40
2018-12-24T09:35:49.676Z,98.30
2018-12-24T09:38:21.506Z,98.10
2018-12-24T09:40:49.981Z,98.10
2018-12-24T09:43:22.772Z,98.30
2018-12-24T09:45:52.861Z,98.00
2018-12-24T09:48:25.651Z,98.20
2018-12-24T09:50:55.697Z,98.40
2018-12-24T09:53:24.129Z,98.30
2018-12-24T09:55:52.569Z,98.40
2018-12-24T09:58:21.070Z,98.60
2018-12-24T10:00:50.464Z,98.50
2018-12-24T10:03:22.053Z,98.50
2018-12-24T10:05:50.770Z,98.40
2018-12-24T10:08:21.913Z,98.30
2018-12-24T10:10:50.338Z,98.60
2018-12-24T10:13:18.789Z,98.30
2018-12-24T10:15:47.554Z,98.00
2018-12-24T10:18:15.957Z,97.90
2018-12-24T10:20:46.292Z,98.00
2018-12-24T10:23:17.381Z,97.90
2018-12-24T10:25:51.593Z,98.00
2018-12-24T10:28:22.828Z,98.10
2018-12-24T10:30:51.538Z,98.20
2018-12-24T10:33:19.975Z,98.20
2018-12-24T10:35:56.741Z,97.90
2018-12-24T10:38:29.882Z,97.60
2018-12-24T10:40:58.297Z,97.20
2018-12-24T10:43:29.729Z,97.30
2018-12-24T10:45:58.169Z,97.40
2018-12-24T10:48:26.862Z,97.30
2018-12-24T10:50:58.206Z,97.30
2018-12-24T10:53:29.580Z,97.10
2018-12-24T10:56:03.512Z,96.50
2018-12-24T10:58:31.925Z,96.40
2018-12-24T11:01:00.966Z,96.50
2018-12-24T11:03:39.620Z,96.00
2018-12-24T11:06:27.421Z,93.90
2018-12-24T11:08:55.920Z,92.60
2018-12-24T11:11:25.090Z,91.90
2018-12-24T11:13:56.757Z,92.30
2018-12-24T11:16:25.210Z,92.50
2018-12-24T11:18:59.542Z,91.60
2018-12-24T11:21:27.941Z,92.00
2018-12-24T11:23:56.414Z,91.40
2018-12-24T11:26:24.936Z,91.60
2018-12-24T11:28:53.338Z,91.90
2018-12-24T11:31:21.759Z,92.10
2018-12-24T11:33:51.749Z,91.50
2018-12-24T11:36:20.217Z,90.40
2018-12-24T11:38:49.003Z,90.50
2018-12-24T11:41:17.528Z,90.40
2018-12-24T11:43:46.248Z,90.40
2018-12-24T11:46:15.041Z,91.00
2018-12-24T11:48:43.564Z,89.10
2018-12-24T11:51:14.741Z,86.10
2018-12-24T11:53:43.182Z,80.50
2018-12-24T11:56:12.901Z,78.80
2018-12-24T11:58:43.029Z,80.60
2018-12-24T12:01:11.452Z,82.20
2018-12-24T12:03:39.869Z,82.50
2018-12-24T12:06:08.317Z,81.80
2018-12-24T12:08:44.653Z,81.20
2018-12-24T12:11:13.437Z,83.10
2018-12-24T12:13:41.857Z,84.00
2018-12-24T12:16:14.569Z,83.00
2018-12-24T12:18:43.134Z,81.00
2018-12-24T12:21:20.050Z,78.10
2018-12-24T12:23:48.477Z,76.40
2018-12-24T12:26:19.956Z,77.90
2018-12-24T12:28:48.402Z,78.50
2018-12-24T12:31:16.814Z,79.70
2018-12-24T12:33:45.252Z,82.00
2018-12-24T12:36:13.672Z,82.00
2018-12-24T12:38:42.093Z,81.20
2018-12-24T12:41:13.727Z,82.30
2018-12-24T12:43:46.394Z,84.20
2018-12-24T12:46:38.888Z,86.00
2018-12-24T12:49:13.102Z,88.20
2018-12-24T12:51:54.059Z,89.40
2018-12-24T12:54:25.390Z,90.20
2018-12-24T12:56:58.093Z,90.20
2018-12-24T12:59:29.702Z,90.60
2018-12-24T13:02:05.649Z,90.40
2018-12-24T13:04:34.099Z,90.80
2018-12-24T13:07:02.508Z,91.20
2018-12-24T13:09:32.262Z,91.70
2018-12-24T13:12:01.114Z,92.40
2018-12-24T13:14:29.565Z,92.60
2018-12-24T13:16:58.273Z,93.10
2018-12-24T13:19:26.683Z,93.40
2018-12-24T13:22:04.130Z,93.40
2018-12-24T13:24:25.708Z,93.30
2018-12-24T13:26:54.145Z,93.60
2018-12-24T13:29:25.793Z,93.60
2018-12-24T13:31:56.083Z,93.40
2018-12-24T13:34:27.285Z,92.80
2018-12-24T13:36:59.185Z,92.70
2018-12-24T13:39:32.904Z,92.90
2018-12-24T13:42:04.370Z,92.90
2018-12-24T13:44:38.517Z,93.40
2018-12-24T13:47:12.826Z,93.40
2018-12-24T13:49:43.897Z,93.60
2018-12-24T13:52:12.609Z,93.70
2018-12-24T13:54:46.881Z,93.50
2018-12-24T13:57:15.288Z,93.20
2018-12-24T13:59:43.706Z,93.00
2018-12-24T14:02:12.469Z,93.30
2018-12-24T14:04:40.872Z,93.50
2018-12-24T14:07:14.970Z,93.80
2018-12-24T14:09:50.085Z,93.90
2018-12-24T14:12:24.186Z,93.70
2018-12-24T14:14:56.648Z,94.10
2018-12-24T14:17:28.150Z,94.50
2018-12-24T14:19:56.561Z,94.70
2018-12-24T14:22:26.925Z,95.10
2018-12-24T14:24:55.357Z,95.50
2018-12-24T14:27:26.631Z,95.60
2018-12-24T14:30:07.126Z,95.80
2018-12-24T14:32:38.630Z,96.00
2018-12-24T14:35:07.474Z,96.10
2018-12-24T14:37:40.442Z,96.30
2018-12-24T14:40:11.700Z,96.50
2018-12-24T14:42:42.877Z,96.60
2018-12-24T14:45:12.920Z,96.70
2018-12-24T14:47:41.373Z,96.80
2018-12-24T14:50:12.545Z,97.10
2018-12-24T14:52:40.965Z,97.10
2018-12-24T14:55:09.397Z,97.20
2018-12-24T14:57:43.181Z,97.30
2018-12-24T15:00:11.593Z,97.30
2018-12-24T15:02:44.170Z,97.40
2018-12-24T15:05:12.570Z,97.30
2018-12-24T15:07:44.202Z,97.40
2018-12-24T15:10:12.626Z,97.60
2018-12-24T15:12:41.065Z,97.70
2018-12-24T15:15:27.441Z,97.60
2018-12-24T15:17:55.852Z,97.70
2018-12-24T15:20:24.310Z,97.70
2018-12-24T15:22:55.476Z,97.80
2018-12-24T15:25:24.237Z,97.80
2018-12-24T15:27:52.688Z,97.80
2018-12-24T15:30:27.068Z,97.80
2018-12-24T15:33:03.125Z,97.60
2018-12-24T15:35:33.169Z,97.50
2018-12-24T15:38:02.093Z,97.40
2018-12-24T15:40:35.281Z,97.40
2018-12-24T15:43:03.685Z,97.80
2018-12-24T15:45:35.417Z,97.70
2018-12-24T15:48:07.982Z,97.90
2018-12-24T15:50:39.104Z,98.00
2018-12-24T15:53:10.398Z,98.10
2018-12-24T15:55:44.341Z,98.20
2018-12-24T15:58:18.589Z,98.20
2018-12-24T16:00:49.693Z,98.30
2018-12-24T16:03:18.094Z,98.50
2018-12-24T16:05:49.241Z,98.50
2018-12-24T16:08:19.593Z,98.80
2018-12-24T16:10:49.065Z,98.50
2018-12-24T16:13:20.129Z,98.40
2018-12-24T16:15:49.582Z,98.30
2018-12-24T16:18:17.960Z,98.40
2018-12-24T16:20:46.534Z,98.40
2018-12-24T16:23:14.949Z,98.40
2018-12-24T16:25:48.960Z,98.50
2018-12-24T16:28:17.400Z,98.40
2018-12-24T16:30:48.668Z,98.40
2018-12-24T16:33:19.791Z,98.30
2018-12-24T16:35:48.515Z,98.30
2018-12-24T16:38:18.573Z,98.40
2018-12-24T16:40:47.601Z,98.50
2018-12-24T16:43:24.060Z,98.60
2018-12-24T16:45:55.422Z,98.80
2018-12-24T16:48:23.832Z,98.80
2018-12-24T16:50:56.930Z,98.70
2018-12-24T16:53:28.244Z,98.80
2018-12-24T16:56:02.058Z,98.70
2018-12-24T16:58:36.576Z,98.50
2018-12-24T17:01:05.109Z,98.90
2018-12-24T17:03:33.538Z,99.00
2018-12-24T17:06:01.973Z,99.20
2018-12-24T17:08:33.078Z,99.10
2018-12-24T17:11:02.086Z,99.10
2018-12-24T17:13:33.420Z,98.60
2018-12-24T17:16:09.461Z,98.40
2018-12-24T17:18:40.762Z,98.40
2018-12-24T17:21:24.226Z,98.30
2018-12-24T17:23:53.017Z,98.40
2018-12-24T17:26:24.670Z,98.50
2018-12-24T17:28:54.765Z,98.50
2018-12-24T17:31:23.186Z,98.40
2018-12-24T17:33:59.946Z,98.30
2018-12-24T17:36:34.070Z,98.40
2018-12-24T17:39:04.082Z,98.40
2018-12-24T17:41:34.150Z,98.20
2018-12-24T17:44:02.593Z,98.10
2018-12-24T17:46:32.645Z,98.40
2018-12-24T17:49:02.628Z,98.20
2018-12-24T17:51:34.348Z,97.90
2018-12-24T17:54:08.092Z,97.50
2018-12-24T17:56:44.755Z,97.50
2018-12-24T17:59:16.825Z,97.50
2018-12-24T18:01:46.865Z,97.40
2018-12-24T18:04:15.571Z,97.60
2018-12-24T18:06:43.983Z,98.10
2018-12-24T18:09:13.718Z,98.10
2018-12-24T18:11:43.761Z,97.80
2018-12-24T18:14:12.980Z,98.00
2018-12-24T18:16:45.750Z,97.90
2018-12-24T18:19:14.188Z,97.80
2018-12-24T18:21:57.590Z,97.60
2018-12-24T18:24:27.681Z,97.10
2018-12-24T18:26:56.100Z,96.90
2018-12-24T18:29:27.284Z,97.00
2018-12-24T18:31:55.712Z,96.70
2018-12-24T18:34:24.128Z,96.40
2018-12-24T18:36:53.348Z,96.30
2018-12-24T18:39:25.421Z,96.10
2018-12-24T18:41:56.290Z,96.70
2018-12-24T18:44:24.963Z,96.40
2018-12-24T18:46:53.377Z,97.00
2018-12-24T18:49:22.100Z,97.00
2018-12-24T18:51:53.184Z,97.00
2018-12-24T18:54:23.266Z,96.10
2018-12-24T18:56:56.003Z,95.20
2018-12-24T18:59:34.242Z,95.40
2018-12-24T19:02:08.399Z,95.50
2018-12-24T19:04:39.407Z,95.50
2018-12-24T19:07:13.493Z,95.50
2018-12-24T19:09:42.290Z,95.50
2018-12-24T19:12:13.524Z,95.80
2018-12-24T19:14:41.949Z,96.20
2018-12-24T19:17:10.357Z,96.00
2018-12-24T19:19:41.826Z,95.90
2018-12-24T19:22:16.144Z,95.30
2018-12-24T19:24:47.337Z,95.40
2018-12-24T19:27:21.389Z,95.60
2018-12-24T19:29:52.452Z,95.70
2018-12-24T19:32:22.519Z,95.80
2018-12-24T19:34:59.969Z,95.50
2018-12-24T19:37:28.733Z,95.80
2018-12-24T19:40:00.088Z,95.80
2018-12-24T19:42:33.537Z,96.00
2018-12-24T19:45:05.177Z,96.10
2018-12-24T19:47:33.909Z,96.20
2018-12-24T19:50:05.066Z,96.40
2018-12-24T19:52:36.268Z,95.90
2018-12-24T19:55:07.532Z,95.30
2018-12-24T19:57:36.222Z,95.30
2018-12-24T20:00:09.692Z,95.40
2018-12-24T20:02:44.060Z,95.80
2018-12-24T20:05:12.513Z,96.10
2018-12-24T20:07:43.869Z,96.20
2018-12-24T20:10:12.310Z,96.50
2018-12-24T20:12:40.749Z,96.50
2018-12-24T20:15:12.709Z,96.70
2018-12-24T20:17:41.156Z,96.40
2018-12-24T20:20:09.855Z,96.30
2018-12-24T20:22:44.545Z,96.50
2018-12-24T20:25:16.004Z,94.30
2018-12-24T20:27:50.554Z,94.50
2018-12-24T20:30:21.761Z,94.10
2018-12-24T20:32:50.185Z,94.70
2018-12-24T20:35:24.984Z,94.90
2018-12-24T20:37:56.619Z,94.80
2018-12-24T20:40:25.326Z,94.90
2018-12-24T20:42:56.593Z,95.30
2018-12-24T20:45:27.717Z,95.10
2018-12-24T20:48:15.954Z,95.10
2018-12-24T20:50:53.485Z,95.40
2018-12-24T20:53:21.922Z,95.10
2018-12-24T20:55:51.247Z,95.10
2018-12-24T20:58:25.126Z,94.80
2018-12-24T21:00:53.813Z,94.90
2018-12-24T21:03:25.851Z,94.60
2018-12-24T21:05:55.953Z,94.40
2018-12-24T21:08:27.193Z,94.50
2018-12-24T21:10:55.727Z,94.70
2018-12-24T21:13:25.196Z,93.80
2018-12-24T21:15:59.448Z,93.70
2018-12-24T21:18:31.423Z,93.40
2018-12-24T21:21:08.165Z,93.60
2018-12-24T21:24:02.377Z,94.40
2018-12-24T21:27:08.928Z,95.00
2018-12-24T21:29:40.200Z,95.70
2018-12-24T21:32:08.611Z,95.50
2018-12-24T21:34:44.971Z,96.00
2018-12-24T21:37:13.504Z,96.30
2018-12-24T21:39:45.338Z,96.40
2018-12-24T21:42:13.804Z,96.70
2018-12-24T21:44:54.637Z,96.60
2018-12-24T21:47:23.129Z,96.70
2018-12-24T21:49:51.554Z,96.70
2018-12-24T21:52:20.328Z,96.90
2018-12-24T21:54:51.745Z,97.00
2018-12-24T21:57:23.479Z,97.30
2018-12-24T21:59:52.807Z,96.80
2018-12-24T22:02:24.074Z,96.30
2018-12-24T22:05:26.886Z,96.60
2018-12-24T22:08:15.205Z,96.70
2018-12-24T22:10:45.645Z,97.00
2018-12-24T22:13:14.409Z,97.30
2018-12-24T22:15:45.634Z,96.90
2018-12-24T22:18:14.211Z,96.90
2018-12-24T22:20:55.121Z,96.70
2018-12-24T22:23:28.627Z,96.20
2018-12-24T22:25:57.101Z,96.60
2018-12-24T22:28:25.881Z,96.40
2018-12-24T22:30:54.700Z,95.10
2018-12-24T22:33:23.454Z,95.00
2018-12-24T22:35:52.239Z,95.10
2018-12-24T22:38:20.697Z,95.10
2018-12-24T22:41:28.960Z,95.00
2018-12-24T22:43:57.926Z,94.90
2018-12-24T22:46:26.397Z,94.90
2018-12-24T22:48:55.178Z,95.10
2018-12-24T22:51:23.888Z,95.20
2018-12-24T22:53:52.298Z,95.50
2018-12-24T22:56:20.718Z,95.70
2018-12-24T22:58:49.220Z,95.80
2018-12-24T23:01:17.657Z,95.80
2018-12-24T23:04:01.236Z,95.70
2018-12-24T23:07:25.086Z,95.60
2018-12-24T23:09:59.579Z,95.70
2018-12-24T23:12:35.941Z,95.90
2018-12-24T23:15:06.872Z,95.70
2018-12-24T23:17:35.371Z,95.50
2018-12-24T23:20:04.288Z,96.00
2018-12-24T23:22:32.708Z,95.80
2018-12-24T23:25:12.341Z,96.00
2018-12-24T23:27:40.817Z,96.10
2018-12-24T23:30:10.870Z,95.90
2018-12-24T23:32:47.073Z,96.40
2018-12-24T23:35:15.476Z,96.80
2018-12-24T23:37:55.993Z,96.70
2018-12-24T23:40:24.397Z,96.60
2018-12-24T23:43:00.277Z,97.00
2018-12-24T23:45:28.688Z,96.70
2018-12-24T23:47:57.129Z,97.00
2018-12-24T23:50:28.277Z,97.10
2018-12-24T23:53:04.877Z,97.20
2018-12-24T23:55:33.082Z,97.40
2018-12-24T23:58:08.875Z,97.60
